Time;durP1;ratioP1;P1;durP2;ratioP2;P2;SDS_P1;SDS_P2;PMS_P1;PMS_P2;Temp;Humidity;BMP_temperature;BMP_pressure;BME280_temperature;BME280_humidity;BME280_pressure;Samples;Min_cycle;Max_cycle;Signal;HPM_P1;HPM_P2
2021/05/24 00:01:25;;;;;;;31.93;18.98;;;;;;;7.94;76.38;101512.75;1739370;81;21679;-83
2021/05/24 00:03:52;;;;;;;10.05;6.92;;;;;;;7.91;76.34;101510.86;1741936;81;21069;-83
2021/05/24 00:06:18;;;;;;;6.50;4.80;;;;;;;7.89;76.39;101519.06;1740479;81;21577;-82
2021/05/24 00:08:45;;;;;;;10.80;6.12;;;;;;;7.87;76.46;101508.92;1736620;81;21565;-83
2021/05/24 00:11:12;;;;;;;7.10;5.22;;;;;;;7.87;76.51;101516.78;1740572;81;21736;-83
2021/05/24 00:13:52;;;;;;;8.65;5.58;;;;;;;7.85;76.54;101513.20;1743110;81;21085;-83
2021/05/24 00:16:13;;;;;;;8.18;4.95;;;;;;;7.83;76.52;101512.62;1737475;81;21022;-83
2021/05/24 00:18:40;;;;;;;17.62;12.03;;;;;;;7.79;76.53;101516.42;1741343;81;21108;-83
2021/05/24 00:21:07;;;;;;;14.18;9.38;;;;;;;7.78;76.65;101516.34;1735291;81;21063;-83
2021/05/24 00:23:34;;;;;;;8.95;5.55;;;;;;;7.77;76.69;101520.69;1745349;81;21785;-83
2021/05/24 00:26:02;;;;;;;20.60;14.03;;;;;;;7.76;76.79;101518.88;1739752;81;21053;-83
2021/05/24 00:28:29;;;;;;;10.90;6.85;;;;;;;7.76;76.81;101514.06;1741804;81;21183;-83
2021/05/24 00:30:55;;;;;;;7.03;4.75;;;;;;;7.73;76.78;101513.90;1744157;81;21119;-83
2021/05/24 00:33:44;;;;;;;7.37;5.33;;;;;;;7.72;76.83;101512.13;1742666;81;21046;-83
2021/05/24 00:36:20;;;;;;;11.78;7.42;;;;;;;7.71;76.91;101519.48;1743699;81;22501;-83
2021/05/24 00:38:47;;;;;;;16.52;7.92;;;;;;;7.71;76.93;101519.06;1744701;81;21453;-83
2021/05/24 00:41:14;;;;;;;53.38;22.62;;;;;;;7.70;76.89;101517.70;1734416;81;21063;-83
2021/05/24 00:43:41;;;;;;;26.15;15.32;;;;;;;7.69;76.92;101511.95;1743779;81;21057;-83
2021/05/24 00:46:08;;;;;;;15.10;10.35;;;;;;;7.68;76.99;101508.88;1750226;80;21071;-83
2021/05/24 00:48:34;;;;;;;7.45;5.60;;;;;;;7.67;76.99;101505.33;1720639;81;21831;-83
2021/05/24 00:51:03;;;;;;;7.75;5.78;;;;;;;7.65;77.08;101509.59;1744389;81;21180;-83
2021/05/24 00:53:30;;;;;;;18.80;12.45;;;;;;;7.64;77.08;101514.75;1749645;81;21140;-83
2021/05/24 00:56:12;;;;;;;14.18;9.40;;;;;;;7.62;77.11;101516.41;1751155;81;21153;-82
2021/05/24 00:58:39;;;;;;;16.85;10.50;;;;;;;7.59;77.18;101523.72;1738514;81;21021;-83
2021/05/24 01:01:13;;;;;;;11.35;7.28;;;;;;;7.59;77.19;101525.03;1742326;82;21744;-83
2021/05/24 01:03:41;;;;;;;9.95;6.03;;;;;;;7.57;77.26;101522.33;1744253;81;21072;-85
2021/05/24 01:06:19;;;;;;;12.00;7.05;;;;;;;7.57;77.29;101531.49;1750824;81;21099;-83
2021/05/24 01:08:46;;;;;;;15.98;10.63;;;;;;;7.54;77.32;101531.33;1713044;81;21397;-83
2021/05/24 01:11:19;;;;;;;19.40;11.18;;;;;;;7.51;77.26;101527.69;1740850;81;21161;-83
2021/05/24 01:13:46;;;;;;;13.05;7.42;;;;;;;7.48;77.30;101536.27;1738205;81;21431;-83
2021/05/24 01:16:13;;;;;;;34.38;18.17;;;;;;;7.46;77.38;101533.10;1745704;81;21585;-84
2021/05/24 01:18:40;;;;;;;21.37;13.35;;;;;;;7.45;77.48;101532.21;1749703;81;21712;-83
2021/05/24 01:21:11;;;;;;;6.50;5.53;;;;;;;7.44;77.48;101538.67;1741779;81;21147;-82
2021/05/24 01:23:41;;;;;;;7.45;5.62;;;;;;;7.40;77.52;101542.44;1736651;81;21108;-82
2021/05/24 01:26:07;;;;;;;6.85;4.83;;;;;;;7.41;77.56;101539.40;1740907;81;22351;-82
2021/05/24 01:28:34;;;;;;;9.83;5.58;;;;;;;7.38;77.62;101542.78;1751321;81;21811;-82
2021/05/24 01:31:02;;;;;;;16.62;9.23;;;;;;;7.37;77.64;101541.38;1752705;80;20978;-82
2021/05/24 01:33:29;;;;;;;23.40;13.10;;;;;;;7.36;77.64;101539.60;1751195;80;21061;-83
2021/05/24 01:35:56;;;;;;;19.95;11.90;;;;;;;7.34;77.64;101537.31;1749433;81;21661;-82
2021/05/24 01:38:29;;;;;;;12.98;7.25;;;;;;;7.32;77.69;101542.86;1741671;82;21746;-83
2021/05/24 01:40:57;;;;;;;24.60;12.80;;;;;;;7.32;77.80;101543.78;1741972;81;21114;-83
2021/05/24 01:43:28;;;;;;;32.45;16.85;;;;;;;7.32;77.88;101549.41;1736015;81;21120;-82
2021/05/24 01:46:03;;;;;;;14.60;9.18;;;;;;;7.33;77.96;101548.19;1746169;81;21414;-82
2021/05/24 01:48:33;;;;;;;9.83;7.45;;;;;;;7.34;77.97;101547.80;1744219;81;21081;-82
2021/05/24 01:51:15;;;;;;;25.48;14.43;;;;;;;7.33;77.99;101551.22;1742265;81;22862;-82
2021/05/24 01:53:44;;;;;;;14.18;9.18;;;;;;;7.33;77.98;101547.30;1738524;81;21143;-82
2021/05/24 01:56:11;;;;;;;10.32;6.87;;;;;;;7.31;77.96;101547.20;1741283;81;21064;-83
2021/05/24 01:58:38;;;;;;;22.70;13.18;;;;;;;7.31;78.01;101553.75;1740747;81;21096;-83
2021/05/24 02:01:09;;;;;;;20.20;13.28;;;;;;;7.31;78.03;101550.25;1742067;80;21045;-83
2021/05/24 02:03:37;;;;;;;40.63;23.90;;;;;;;7.29;77.97;101559.75;1740324;81;21887;-82
2021/05/24 02:06:04;;;;;;;48.45;27.93;;;;;;;7.29;78.08;101551.47;1741802;81;21048;-83
2021/05/24 02:08:32;;;;;;;47.13;31.15;;;;;;;7.29;78.05;101558.44;1747239;81;21073;-82
2021/05/24 02:11:03;;;;;;;47.90;31.87;;;;;;;7.28;78.15;101551.00;1745649;81;21282;-82
2021/05/24 02:13:30;;;;;;;44.55;27.85;;;;;;;7.29;78.16;101551.89;1747140;81;21140;-82
2021/05/24 02:15:57;;;;;;;23.42;17.25;;;;;;;7.30;78.11;101556.29;1743885;81;21747;-83
2021/05/24 02:18:23;;;;;;;31.87;21.30;;;;;;;7.29;78.16;101556.71;1740179;81;21717;-84
2021/05/24 02:20:58;;;;;;;46.05;32.63;;;;;;;7.31;78.17;101559.41;1741152;81;21653;-83
2021/05/24 02:23:29;;;;;;;20.35;15.58;;;;;;;7.31;78.11;101547.62;1669072;84;21674;-83
2021/05/24 02:25:55;;;;;;;19.20;13.98;;;;;;;7.29;78.05;101555.81;1684867;83;21100;-83
2021/05/24 02:28:22;;;;;;;14.78;11.88;;;;;;;7.28;78.15;101555.31;1695421;83;21746;-82
2021/05/24 02:30:49;;;;;;;8.95;7.05;;;;;;;7.30;78.12;101552.36;1703588;83;21037;-83
2021/05/24 02:33:16;;;;;;;7.83;6.12;;;;;;;7.31;78.22;101551.55;1685399;84;21133;-82
2021/05/24 02:35:44;;;;;;;13.70;8.20;;;;;;;7.37;78.26;101547.93;1691950;83;21709;-82
2021/05/24 02:38:12;;;;;;;25.80;16.50;;;;;;;7.43;78.30;101560.02;1670946;83;21104;-82
2021/05/24 02:40:39;;;;;;;38.90;24.23;;;;;;;7.46;78.17;101563.22;1684299;83;21748;-82
2021/05/24 02:43:05;;;;;;;61.40;36.35;;;;;;;7.48;78.13;101565.09;1706554;83;21141;-82
2021/05/24 02:45:32;;;;;;;36.35;20.68;;;;;;;7.53;78.23;101560.09;1708056;83;21248;-82
2021/05/24 02:48:00;;;;;;;20.45;12.33;;;;;;;7.57;78.15;101562.05;1691758;83;21132;-82
2021/05/24 02:50:27;;;;;;;10.90;6.58;;;;;;;7.61;78.08;101560.48;1684404;83;21202;-81
2021/05/24 02:52:54;;;;;;;10.03;6.25;;;;;;;7.65;77.98;101554.14;1671510;83;21772;-82
2021/05/24 02:55:21;;;;;;;9.53;5.70;;;;;;;7.69;77.84;101556.50;1706973;83;21092;-82
2021/05/24 02:57:48;;;;;;;11.57;7.40;;;;;;;7.73;77.81;101561.99;1682148;83;21657;-82
2021/05/24 03:00:15;;;;;;;22.98;11.50;;;;;;;7.77;77.74;101556.07;1694527;83;21169;-83
2021/05/24 03:02:47;;;;;;;11.95;6.92;;;;;;;7.83;77.77;101563.34;1701379;82;21068;-81
2021/05/24 03:05:19;;;;;;;9.80;5.67;;;;;;;7.89;77.72;101563.62;1668903;84;22431;-81
2021/05/24 03:07:46;;;;;;;9.70;5.80;;;;;;;7.98;77.71;101557.95;1681164;84;21107;-82
2021/05/24 03:10:17;;;;;;;14.23;9.10;;;;;;;8.06;77.64;101555.27;1666854;84;21646;-82
2021/05/24 03:12:44;;;;;;;22.98;15.28;;;;;;;8.18;77.68;101563.73;1668034;85;21119;-82
2021/05/24 03:15:12;;;;;;;14.87;9.55;;;;;;;8.37;77.85;101561.95;1689098;84;21158;-83
2021/05/24 03:17:39;;;;;;;13.55;10.10;;;;;;;8.64;77.86;101558.87;1743994;81;22287;-83
2021/05/24 03:20:08;;;;;;;12.50;8.45;;;;;;;8.92;77.87;101557.08;1744291;81;21123;-83
2021/05/24 03:22:35;;;;;;;12.68;7.25;;;;;;;9.27;77.80;101557.71;1713987;81;21286;-83
2021/05/24 03:25:01;;;;;;;9.80;5.25;;;;;;;9.65;77.59;101564.61;1743154;81;21558;-83
2021/05/24 03:27:28;;;;;;;6.87;5.10;;;;;;;10.08;77.54;101561.11;1743842;80;21359;-83
2021/05/24 03:29:55;;;;;;;6.47;4.90;;;;;;;10.61;77.26;101567.12;1746196;81;21740;-83
2021/05/24 03:32:22;;;;;;;5.78;4.85;;;;;;;10.97;76.08;101562.73;1741557;81;21085;-83
2021/05/24 03:34:51;;;;;;;8.80;5.20;;;;;;;11.21;75.37;101557.45;1747467;81;21033;-82
2021/05/24 03:37:18;;;;;;;9.45;4.83;;;;;;;11.64;75.26;101565.53;1746792;80;21129;-83
2021/05/24 03:39:45;;;;;;;6.30;4.50;;;;;;;12.52;75.87;101556.04;1745376;80;21246;-83
2021/05/24 03:42:11;;;;;;;7.10;4.70;;;;;;;14.25;77.32;101553.99;1741035;81;21724;-82
2021/05/24 03:44:42;;;;;;;6.10;3.52;;;;;;;16.22;76.04;101552.42;1745532;81;21150;-83
2021/05/24 03:47:07;;;;;;;5.08;3.98;;;;;;;17.92;73.63;101549.91;1744282;81;21581;-82
2021/05/24 03:49:34;;;;;;;4.95;4.28;;;;;;;18.88;70.22;101543.36;1747767;81;21151;-82
2021/05/24 03:52:00;;;;;;;5.72;4.10;;;;;;;18.86;65.76;101539.34;1741817;81;21041;-83
2021/05/24 03:54:37;;;;;;;5.55;4.28;;;;;;;17.90;64.15;101552.56;1739749;81;21746;-89
2021/05/24 03:57:06;;;;;;;7.12;4.25;;;;;;;17.47;64.71;101565.05;1744827;81;21038;-90
2021/05/24 03:59:33;;;;;;;7.65;4.10;;;;;;;18.47;66.80;101555.61;1721158;81;21071;-89
2021/05/24 04:02:00;;;;;;;6.90;4.55;;;;;;;20.22;66.49;101558.19;1711060;82;21132;-81
2021/05/24 04:04:35;;;;;;;4.97;4.03;;;;;;;21.69;64.17;101548.57;1710991;83;21213;-92
2021/05/24 04:07:02;;;;;;;6.28;4.30;;;;;;;22.77;61.95;101553.73;1711912;83;22384;-88
2021/05/24 04:09:51;;;;;;;7.03;4.05;;;;;;;23.78;60.55;101543.30;1711442;82;21135;-92
2021/05/24 04:12:19;;;;;;;7.03;4.17;;;;;;;24.82;58.83;101547.62;1691503;83;21646;-89
2021/05/24 04:14:46;;;;;;;7.03;4.30;;;;;;;25.68;57.02;101535.34;1692327;82;21112;-89
2021/05/24 04:17:15;;;;;;;5.47;4.42;;;;;;;27.14;53.48;101551.47;1682556;83;21078;-90
2021/05/24 04:19:44;;;;;;;5.80;4.80;;;;;;;27.14;53.48;101551.47;1686063;83;21719;-87
2021/05/24 04:22:11;;;;;;;7.03;5.60;;;;;;;27.94;52.67;101554.78;1688205;83;21641;-83
2021/05/24 04:24:38;;;;;;;6.92;5.40;;;;;;;28.77;51.10;101556.72;1684514;83;21189;-84
2021/05/24 04:27:05;;;;;;;5.95;5.15;;;;;;;29.41;49.34;101555.13;1693974;83;21739;-86
2021/05/24 04:29:32;;;;;;;8.85;6.90;;;;;;;29.90;48.03;101550.85;1679643;82;21152;-86
2021/05/24 04:32:02;;;;;;;8.08;6.60;;;;;;;30.41;46.63;101549.05;1675364;83;21733;-87
2021/05/24 04:34:32;;;;;;;8.98;6.65;;;;;;;30.83;45.48;101545.77;1681526;83;21119;-86
2021/05/24 04:36:57;;;;;;;8.18;6.62;;;;;;;31.25;44.28;101541.94;1681746;83;21104;-86
2021/05/24 04:39:24;;;;;;;9.35;6.12;;;;;;;31.58;42.68;101538.53;1692901;83;21104;-87
2021/05/24 04:42:08;;;;;;;7.20;5.72;;;;;;;32.02;42.21;101543.98;1709191;83;21548;-89
2021/05/24 04:44:56;;;;;;;6.45;5.33;;;;;;;32.53;41.32;101546.30;1686462;83;21125;-90
2021/05/24 04:47:29;;;;;;;10.13;5.92;;;;;;;33.01;39.81;101550.47;1696613;83;21106;-90
2021/05/24 04:49:56;;;;;;;7.28;5.40;;;;;;;33.14;38.54;101546.59;1702300;81;21063;-90
2021/05/24 04:52:27;;;;;;;6.53;5.90;;;;;;;33.40;38.17;101541.86;1711861;83;21067;-90
2021/05/24 04:54:53;;;;;;;7.08;5.65;;;;;;;33.88;37.59;101543.13;1711586;81;21149;-90
2021/05/24 04:57:20;;;;;;;5.83;5.15;;;;;;;34.34;36.39;101540.33;1712149;82;21759;-90
2021/05/24 04:59:47;;;;;;;8.53;6.10;;;;;;;34.64;35.67;101539.36;1712246;83;21731;-90
2021/05/24 05:02:14;;;;;;;6.78;5.55;;;;;;;34.99;34.82;101533.00;1711402;82;21084;-90
2021/05/24 05:04:44;;;;;;;7.72;5.80;;;;;;;35.08;34.06;101533.36;1709829;82;21655;-91
2021/05/24 05:07:22;;;;;;;6.05;5.42;;;;;;;35.18;33.94;101535.43;1709413;83;21576;-85
2021/05/24 05:09:59;;;;;;;5.30;4.80;;;;;;;35.51;33.08;101537.36;1644769;86;21195;-89
2021/05/24 05:12:41;;;;;;;7.50;4.62;;;;;;;35.69;32.60;101546.22;1621691;86;21160;-91
2021/05/24 05:15:43;;;;;;;;;;;;;;;35.99;32.16;101538.60;1645530;85;21112;-91
2021/05/24 05:18:57;;;;;;;7.55;4.75;;;;;;;36.00;30.96;101540.38;1647320;86;20587;-90
2021/05/24 05:22:38;;;;;;;6.78;4.70;;;;;;;35.85;30.82;101544.16;1553472;91;21254;-89
2021/05/24 05:26:06;;;;;;;9.33;4.62;;;;;;;36.04;30.81;101542.41;1542692;91;21166;-92
2021/05/24 05:28:46;;;;;;;7.85;5.00;;;;;;;36.37;30.41;101542.38;1551142;91;21162;-90
2021/05/24 05:31:07;;;;;;;7.83;4.90;;;;;;;36.17;29.49;101547.44;1526514;91;21145;-89
2021/05/24 05:33:34;;;;;;;6.42;4.00;;;;;;;36.15;29.45;101553.48;1557193;90;21097;-90
2021/05/24 05:36:01;;;;;;;7.50;4.70;;;;;;;36.02;29.46;101553.94;1555695;90;21090;-89
2021/05/24 05:38:35;;;;;;;4.78;4.25;;;;;;;34.79;28.39;101550.70;1554502;90;21455;-90
2021/05/24 05:40:59;;;;;;;4.65;3.83;;;;;;;32.32;28.51;101556.03;1571362;89;21764;-90
2021/05/24 05:43:26;;;;;;;6.08;4.50;;;;;;;29.97;29.45;101562.73;1585492;89;21145;-89
2021/05/24 05:45:53;;;;;;;4.58;4.17;;;;;;;27.88;30.62;101568.91;1596198;89;21657;-89
2021/05/24 05:48:19;;;;;;;10.88;4.40;;;;;;;26.01;31.99;101568.64;1593311;89;21095;-89
2021/05/24 05:50:47;;;;;;;4.87;4.25;;;;;;;24.75;33.38;101576.94;1588981;89;21875;-89
2021/05/24 05:53:17;;;;;;;6.08;4.40;;;;;;;23.57;34.53;101571.86;1618247;87;21134;-89
2021/05/24 05:55:44;;;;;;;6.00;4.20;;;;;;;22.57;35.91;101571.41;1620898;87;21139;-88
2021/05/24 05:58:11;;;;;;;5.95;5.00;;;;;;;21.83;37.08;101580.17;1628814;85;21360;-89
2021/05/24 06:00:38;;;;;;;5.67;4.90;;;;;;;21.13;38.09;101579.73;1685983;83;21079;-89
2021/05/24 06:03:05;;;;;;;5.12;4.62;;;;;;;20.47;39.22;101582.63;1653373;85;21751;-88
2021/05/24 06:05:34;;;;;;;6.97;4.60;;;;;;;19.87;40.30;101576.02;1667771;85;21068;-88
2021/05/24 06:08:01;;;;;;;5.47;4.90;;;;;;;19.28;41.38;101579.06;1656844;84;21225;-88
2021/05/24 06:10:27;;;;;;;6.35;5.42;;;;;;;18.85;42.27;101577.59;1680288;85;21153;-88
2021/05/24 06:12:58;;;;;;;8.90;5.53;;;;;;;18.47;43.28;101584.94;1647453;85;21129;-88
2021/05/24 06:15:23;;;;;;;5.67;4.97;;;;;;;18.15;43.92;101597.61;1658906;85;21974;-88
2021/05/24 06:17:50;;;;;;;8.33;4.83;;;;;;;17.88;44.89;101596.94;1676305;83;21114;-87
2021/05/24 06:20:17;;;;;;;6.97;5.87;;;;;;;17.65;45.68;101606.91;1665298;83;21080;-88
2021/05/24 06:22:44;;;;;;;7.92;5.95;;;;;;;17.46;46.01;101599.63;1685337;83;21067;-88
2021/05/24 06:25:12;;;;;;;6.78;6.10;;;;;;;17.23;46.84;101608.67;1666529;84;21065;-88
2021/05/24 06:27:38;;;;;;;7.53;5.60;;;;;;;17.08;47.60;101609.42;1668501;85;21765;-88
2021/05/24 06:30:08;;;;;;;9.78;6.25;;;;;;;17.01;48.45;101614.20;1653015;85;21143;-88
2021/05/24 06:32:35;;;;;;;7.92;5.15;;;;;;;16.95;48.88;101613.70;1643479;85;21560;-88
2021/05/24 06:35:02;;;;;;;5.60;4.72;;;;;;;16.90;49.01;101615.39;1670763;85;21610;-88
2021/05/24 06:37:29;;;;;;;5.90;4.35;;;;;;;16.87;49.43;101619.33;1665605;85;21244;-88
2021/05/24 06:39:56;;;;;;;13.40;5.30;;;;;;;16.84;49.85;101619.31;1670864;85;22411;-89
2021/05/24 06:42:24;;;;;;;6.53;4.05;;;;;;;16.82;50.27;101624.61;1651154;85;21928;-88
2021/05/24 06:44:52;;;;;;;4.75;3.05;;;;;;;16.81;50.04;101622.77;1671713;85;21548;-88
2021/05/24 06:47:20;;;;;;;4.37;3.17;;;;;;;16.81;49.53;101628.53;1651431;85;21090;-88
2021/05/24 06:49:47;;;;;;;6.35;3.02;;;;;;;16.79;49.50;101628.95;1671383;85;21090;-88
2021/05/24 06:52:16;;;;;;;3.22;2.67;;;;;;;16.77;49.57;101630.70;1652419;85;21756;-88
2021/05/24 06:54:43;;;;;;;7.92;2.83;;;;;;;16.72;49.33;101629.29;1662678;85;21100;-88
2021/05/24 06:57:10;;;;;;;2.50;2.15;;;;;;;16.70;49.14;101619.98;1657371;85;21089;-88
2021/05/24 06:59:37;;;;;;;3.22;2.30;;;;;;;16.67;48.96;101631.02;1674166;85;21741;-88
2021/05/24 07:02:04;;;;;;;5.53;2.10;;;;;;;16.62;48.86;101627.39;1649880;85;21039;-89
2021/05/24 07:04:31;;;;;;;2.83;2.40;;;;;;;16.59;48.84;101629.98;1634648;85;21920;-88
2021/05/24 07:06:57;;;;;;;3.47;2.27;;;;;;;16.57;48.86;101629.08;1679000;85;21478;-88
2021/05/24 07:09:28;;;;;;;4.85;2.65;;;;;;;16.54;48.84;101632.59;1666349;85;21149;-89
2021/05/24 07:11:54;;;;;;;5.12;2.12;;;;;;;16.49;49.08;101636.95;1646262;83;21655;-88
2021/05/24 07:14:23;;;;;;;4.03;2.15;;;;;;;16.47;48.98;101638.69;1680386;85;21085;-88
2021/05/24 07:16:56;;;;;;;3.87;2.30;;;;;;;16.47;48.86;101639.58;1674880;85;22575;-88
2021/05/24 07:19:26;;;;;;;3.95;2.40;;;;;;;16.47;48.71;101641.34;1658417;83;21665;-89
2021/05/24 07:22:04;;;;;;;1.98;1.82;;;;;;;16.47;48.82;101640.02;1648782;85;21125;-88
2021/05/24 07:24:30;;;;;;;6.83;2.40;;;;;;;16.49;49.25;101641.81;1654818;85;21161;-88
2021/05/24 07:26:59;;;;;;;6.40;3.08;;;;;;;16.55;49.48;101648.09;1642501;84;21130;-89
2021/05/24 07:29:26;;;;;;;3.02;2.52;;;;;;;16.55;49.66;101654.74;1662999;85;22066;-89
2021/05/24 07:31:52;;;;;;;5.75;3.52;;;;;;;16.58;49.97;101652.14;1653028;85;21090;-89
2021/05/24 07:34:19;;;;;;;4.90;3.08;;;;;;;16.62;50.17;101653.53;1660641;85;21035;-89
2021/05/24 07:36:46;;;;;;;5.42;3.27;;;;;;;16.63;50.32;101656.66;1656074;85;21124;-88
2021/05/24 07:39:13;;;;;;;3.35;2.83;;;;;;;16.69;50.44;101666.48;1671952;85;21088;-89
2021/05/24 07:41:40;;;;;;;5.10;3.27;;;;;;;16.70;50.53;101662.94;1652910;85;21787;-89
2021/05/24 07:44:07;;;;;;;5.37;3.50;;;;;;;16.73;50.39;101662.99;1664378;85;21093;-89
2021/05/24 07:46:34;;;;;;;5.62;2.72;;;;;;;16.74;50.71;101667.42;1661226;85;21550;-89
2021/05/24 07:49:01;;;;;;;4.62;3.12;;;;;;;16.79;50.82;101668.83;1649856;84;21630;-89
2021/05/24 07:51:28;;;;;;;3.30;2.47;;;;;;;16.82;50.48;101676.45;1663979;85;21158;-89
2021/05/24 07:53:55;;;;;;;3.02;2.47;;;;;;;16.82;50.21;101673.80;1655975;84;21741;-88
2021/05/24 07:56:22;;;;;;;4.65;2.42;;;;;;;16.84;50.30;101669.39;1660497;85;21135;-89
2021/05/24 07:58:48;;;;;;;3.77;2.50;;;;;;;16.87;49.96;101667.20;1657324;85;21691;-88
2021/05/24 08:01:15;;;;;;;3.27;2.10;;;;;;;16.86;50.00;101672.08;1652669;85;21485;-89
2021/05/24 08:03:42;;;;;;;6.95;3.70;;;;;;;16.92;50.14;101675.25;1638687;85;21074;-89
2021/05/24 08:06:09;;;;;;;4.42;2.98;;;;;;;17.01;50.35;101674.05;1669895;85;21775;-88
2021/05/24 08:08:36;;;;;;;4.12;2.30;;;;;;;17.15;49.99;101669.78;1652250;85;21062;-89
2021/05/24 08:11:06;;;;;;;5.83;2.70;;;;;;;17.29;49.87;101675.30;1646335;85;21038;-88
2021/05/24 08:13:32;;;;;;;3.45;2.33;;;;;;;17.44;49.63;101675.91;1633727;85;21088;-87
2021/05/24 08:15:58;;;;;;;2.72;2.20;;;;;;;17.53;49.22;101680.02;1659570;85;21472;-88
2021/05/24 08:18:25;;;;;;;6.12;2.08;;;;;;;17.53;49.11;101681.76;1643396;85;22401;-89
2021/05/24 08:20:52;;;;;;;3.83;2.45;;;;;;;17.53;48.94;101677.77;1646581;85;21050;-89
2021/05/24 08:23:19;;;;;;;2.65;2.30;;;;;;;17.54;49.01;101671.58;1641752;85;21062;-89
2021/05/24 08:25:48;;;;;;;4.22;2.27;;;;;;;17.65;49.08;101671.26;1671255;85;21136;-89
2021/05/24 08:28:16;;;;;;;2.70;2.20;;;;;;;17.79;49.05;101676.71;1654157;85;21182;-89
2021/05/24 08:30:44;;;;;;;4.10;2.20;;;;;;;17.94;48.87;101682.66;1648851;85;21747;-89
2021/05/24 08:33:11;;;;;;;9.25;2.95;;;;;;;18.02;48.59;101686.31;1660524;85;21167;-88
2021/05/24 08:35:43;;;;;;;5.12;2.55;;;;;;;18.13;48.59;101685.05;1662174;84;21165;-89
2021/05/24 08:38:10;;;;;;;5.75;2.15;;;;;;;18.35;48.38;101691.46;1655202;85;21109;-89
2021/05/24 08:40:36;;;;;;;3.70;2.25;;;;;;;18.62;48.05;101689.45;1659231;85;21113;-88
2021/05/24 08:43:04;;;;;;;5.35;1.70;;;;;;;18.85;47.25;101692.30;1649787;85;21750;-89
2021/05/24 08:45:31;;;;;;;4.85;1.77;;;;;;;18.75;46.27;101685.98;1656138;85;21678;-88
2021/05/24 08:47:57;;;;;;;3.60;1.52;;;;;;;18.53;45.95;101692.94;1644190;85;21097;-89
2021/05/24 08:50:24;;;;;;;7.90;2.47;;;;;;;18.36;46.17;101690.59;1659098;85;21677;-88
2021/05/24 08:52:51;;;;;;;5.50;2.92;;;;;;;18.35;46.49;101695.46;1646948;85;21109;-89
2021/05/24 08:55:18;;;;;;;4.35;1.60;;;;;;;18.39;46.37;101691.52;1655406;84;21764;-89
2021/05/24 08:57:45;;;;;;;6.83;1.92;;;;;;;18.44;46.13;101688.88;1652406;85;21150;-89
2021/05/24 09:00:16;;;;;;;4.78;1.70;;;;;;;18.38;45.69;101684.39;1650501;85;21065;-88
2021/05/24 09:02:55;;;;;;;10.08;2.10;;;;;;;18.28;45.44;101691.84;1662441;85;21220;-89
2021/05/24 09:05:30;;;;;;;2.02;1.60;;;;;;;18.09;45.44;101688.13;1662589;85;21149;-89
2021/05/24 09:08:00;;;;;;;4.35;1.72;;;;;;;17.92;45.32;101682.64;1635731;85;21961;-89
2021/05/24 09:10:29;;;;;;;7.87;2.08;;;;;;;17.84;45.45;101678.58;1652344;85;21160;-89
2021/05/24 09:12:57;;;;;;;5.30;1.87;;;;;;;17.87;45.83;101681.28;1676009;85;21097;-88
2021/05/24 09:15:25;;;;;;;2.87;1.70;;;;;;;17.96;45.96;101679.16;1663858;84;21108;-89
2021/05/24 09:17:59;;;;;;;7.30;2.47;;;;;;;18.05;46.02;101680.99;1660338;85;21121;-89
2021/05/24 09:20:36;;;;;;;5.95;2.77;;;;;;;18.15;45.80;101680.63;1649726;83;21767;-88
2021/05/24 09:23:21;;;;;;;8.98;1.80;;;;;;;18.23;45.55;101684.27;1653859;85;21692;-88
2021/05/24 09:26:04;;;;;;;5.70;1.60;;;;;;;18.30;45.55;101687.44;1668520;85;21137;-89
2021/05/24 09:28:43;;;;;;;2.90;1.70;;;;;;;18.40;45.35;101675.95;1666867;85;21082;-88
2021/05/24 09:31:16;;;;;;;3.27;1.72;;;;;;;18.45;45.19;101672.89;1645552;85;21121;-89
2021/05/24 09:33:53;;;;;;;5.55;2.08;;;;;;;18.47;45.07;101675.58;1672003;85;21782;-89
2021/05/24 09:36:21;;;;;;;5.45;1.92;;;;;;;18.51;45.06;101675.16;1641801;85;21180;-89
2021/05/24 09:38:53;;;;;;;2.52;2.22;;;;;;;18.51;45.00;101670.71;1660443;85;21160;-89
2021/05/24 09:41:21;;;;;;;4.47;1.85;;;;;;;18.58;45.24;101672.55;1660995;85;21153;-88
2021/05/24 09:43:50;;;;;;;5.25;2.17;;;;;;;18.59;44.93;101654.31;1672541;85;21093;-88
2021/05/24 09:46:28;;;;;;;4.37;2.05;;;;;;;18.72;44.50;101666.41;1671588;85;21774;-88
2021/05/24 09:49:04;;;;;;;6.25;1.80;;;;;;;18.78;44.40;101664.64;1663926;85;21764;-89
2021/05/24 09:51:33;;;;;;;3.17;1.72;;;;;;;18.94;44.70;101662.09;1674226;85;21153;-89
2021/05/24 09:54:06;;;;;;;3.37;1.62;;;;;;;19.14;44.51;101666.19;1655119;84;21713;-89
2021/05/24 09:56:35;;;;;;;3.72;1.55;;;;;;;19.19;44.22;101669.78;1660842;85;21181;-88
2021/05/24 09:59:16;;;;;;;4.22;1.80;;;;;;;19.18;44.24;101663.56;1655462;85;21721;-89
2021/05/24 10:01:50;;;;;;;4.67;1.62;;;;;;;19.23;43.99;101651.55;1654393;85;21110;-89
2021/05/24 10:04:23;;;;;;;5.20;1.92;;;;;;;19.26;43.87;101650.23;1638597;85;21137;-88
2021/05/24 10:06:50;;;;;;;2.30;1.42;;;;;;;19.25;43.65;101652.90;1654221;85;21117;-89
2021/05/24 10:09:20;;;;;;;2.72;1.37;;;;;;;19.26;43.41;101655.58;1654202;85;21165;-88
2021/05/24 10:11:49;;;;;;;5.20;1.98;;;;;;;19.32;43.68;101663.60;1663540;85;21771;-89
2021/05/24 10:14:22;;;;;;;3.80;1.45;;;;;;;19.41;43.41;101669.42;1669993;85;21093;-89
2021/05/24 10:16:52;;;;;;;3.27;1.40;;;;;;;19.47;42.84;101665.42;1651285;85;21130;-89
2021/05/24 10:19:20;;;;;;;2.17;1.07;;;;;;;19.61;42.40;101664.12;1648340;85;21102;-89
2021/05/24 10:21:49;;;;;;;3.20;1.80;;;;;;;19.72;42.50;101662.39;1661058;85;21070;-89
2021/05/24 10:24:18;;;;;;;3.58;1.40;;;;;;;19.78;42.07;101664.18;1642157;85;22378;-89
2021/05/24 10:26:45;;;;;;;4.12;1.30;;;;;;;19.71;41.73;101665.94;1660817;85;21108;-89
2021/05/24 10:29:11;;;;;;;1.92;1.15;;;;;;;19.64;41.92;101669.47;1660960;85;21097;-89
2021/05/24 10:31:39;;;;;;;4.03;1.85;;;;;;;19.67;42.08;101668.58;1656636;85;21078;-89
2021/05/24 10:34:23;;;;;;;6.33;2.40;;;;;;;19.73;41.87;101669.53;1643413;85;21089;-89
2021/05/24 10:37:12;;;;;;;;;;;;;;;19.85;41.61;101671.77;1668990;85;21812;-89
2021/05/24 10:40:05;;;;;;;5.65;1.52;;;;;;;20.05;41.38;101669.13;1652795;85;20268;-89
2021/05/24 10:42:44;;;;;;;2.65;1.57;;;;;;;20.32;41.49;101666.89;1649851;85;21101;-89
2021/05/24 10:45:23;;;;;;;4.10;1.70;;;;;;;20.69;41.49;101666.88;1665454;85;21910;-89
2021/05/24 10:47:55;;;;;;;2.58;1.20;;;;;;;20.96;41.22;101660.53;1640123;86;21077;-89
2021/05/24 10:50:22;;;;;;;2.50;1.35;;;;;;;21.19;41.17;101656.45;1660437;85;21759;-88
2021/05/24 10:53:10;;;;;;;2.90;1.30;;;;;;;21.19;40.58;101655.54;1675733;85;21132;-89
2021/05/24 10:55:39;;;;;;;3.55;1.10;;;;;;;21.01;40.01;101653.39;1668835;83;21617;-89
2021/05/24 10:58:16;;;;;;;1.80;1.20;;;;;;;20.86;39.97;101647.64;1645184;85;21172;-88
2021/05/24 11:01:05;;;;;;;2.60;1.22;;;;;;;20.88;40.24;101651.20;1674829;85;21097;-89
2021/05/24 11:03:32;;;;;;;3.50;1.72;;;;;;;21.03;40.25;101646.70;1645109;86;21706;-90
2021/05/24 11:06:15;;;;;;;2.00;1.30;;;;;;;21.30;40.02;101641.23;1653265;85;21140;-90
2021/05/24 11:08:50;;;;;;;3.23;1.20;;;;;;;21.50;39.41;101638.91;1677922;85;21085;-88
2021/05/24 11:11:28;;;;;;;6.10;1.40;;;;;;;21.62;39.18;101640.14;1645795;85;21108;-88
2021/05/24 11:14:02;;;;;;;1.67;0.70;;;;;;;21.71;39.06;101641.42;1658337;85;21042;-89
2021/05/24 11:16:33;;;;;;;3.80;1.27;;;;;;;21.79;38.78;101645.42;1659006;85;22308;-89
2021/05/24 11:19:15;;;;;;;7.80;1.52;;;;;;;21.85;38.71;101647.17;1672442;85;21622;-88
2021/05/24 11:21:52;;;;;;;6.55;1.25;;;;;;;21.97;38.70;101634.98;1680263;85;21101;-88
2021/05/24 11:24:35;;;;;;;4.03;1.20;;;;;;;22.04;38.39;101638.52;1680063;83;21120;-88
2021/05/24 11:26:48;;;;;;;2.20;1.10;;;;;;;22.02;38.30;101635.85;1638384;85;21109;-88
2021/05/24 11:29:17;;;;;;;3.58;1.60;;;;;;;21.90;38.00;101631.91;1627252;85;22496;-88
2021/05/24 11:31:52;;;;;;;3.22;1.32;;;;;;;21.99;38.41;101629.16;1647291;85;21129;-88
2021/05/24 11:34:33;;;;;;;2.67;1.10;;;;;;;22.30;38.45;101634.30;1650780;85;21109;-88
2021/05/24 11:37:07;;;;;;;4.80;1.52;;;;;;;22.47;37.73;101624.28;1662567;85;21144;-89
2021/05/24 11:39:47;;;;;;;3.70;1.20;;;;;;;22.49;37.54;101621.13;1679436;85;21590;-89